Time;durP1;ratioP1;P1;durP2;ratioP2;P2;SDS_P1;SDS_P2;PMS_P1;PMS_P2;Temp;Humidity;BMP_temperature;BMP_pressure;BME280_temperature;BME280_humidity;BME280_pressure;Samples;Min_cycle;Max_cycle;Signal;HPM_P1;HPM_P2
2023/01/03 00:01:40;;;;;;;5.03;2.60;;;6.60;99.90;;;;;;4977367;28;20583;-83
2023/01/03 00:04:06;;;;;;;5.25;3.22;;;6.50;99.90;;;;;;4977299;28;20265;-82
2023/01/03 00:06:35;;;;;;;3.73;2.47;;;6.50;99.90;;;;;;4960221;28;20487;-83
2023/01/03 00:09:03;;;;;;;5.45;2.70;;;6.50;99.90;;;;;;4977473;28;20421;-82
2023/01/03 00:14:19;;;;;;;6.85;2.80;;;6.50;99.90;;;;;;4976435;28;20175;-83
2023/01/03 00:16:45;;;;;;;5.22;2.92;;;6.50;99.90;;;;;;4977293;28;20255;-83
2023/01/03 00:19:12;;;;;;;3.53;2.87;;;6.50;99.90;;;;;;4959617;28;20238;-83
2023/01/03 00:21:39;;;;;;;2.92;2.50;;;6.50;99.90;;;;;;4960151;28;20255;-83
2023/01/03 00:24:05;;;;;;;6.68;3.17;;;6.60;99.90;;;;;;4977138;28;20204;-82
2023/01/03 00:26:31;;;;;;;9.80;3.90;;;6.60;99.90;;;;;;4977524;28;20195;-81
2023/01/03 00:28:57;;;;;;;8.90;5.20;;;6.60;99.90;;;;;;4960314;28;20219;-83
2023/01/03 00:31:22;;;;;;;4.83;3.27;;;6.60;99.90;;;;;;4976890;28;20191;-83
2023/01/03 00:33:49;;;;;;;6.33;4.13;;;6.60;99.90;;;;;;4976976;28;20403;-83
2023/01/03 00:36:14;;;;;;;7.88;3.60;;;6.70;99.90;;;;;;4977268;28;20280;-82
2023/01/03 00:38:40;;;;;;;6.73;3.87;;;6.70;99.90;;;;;;4959956;28;20294;-83
2023/01/03 00:41:11;;;;;;;4.03;2.60;;;6.70;99.90;;;;;;4959969;28;20188;-83
2023/01/03 00:43:40;;;;;;;5.10;3.28;;;6.60;99.90;;;;;;4959655;28;20219;-83
2023/01/03 00:46:06;;;;;;;4.18;3.45;;;6.60;99.90;;;;;;4977059;28;20538;-83
2023/01/03 00:48:33;;;;;;;7.45;3.33;;;6.60;99.90;;;;;;4976925;28;20283;-83
2023/01/03 00:51:10;;;;;;;6.03;2.92;;;6.60;99.90;;;;;;4959310;28;20668;-82
2023/01/03 00:53:38;;;;;;;10.20;3.33;;;6.50;99.90;;;;;;4976713;28;20165;-83
2023/01/03 00:56:05;;;;;;;7.63;3.20;;;6.50;99.90;;;;;;4976767;28;20191;-83
2023/01/03 00:58:32;;;;;;;7.20;3.13;;;6.40;99.90;;;;;;4976737;28;20536;-83
2023/01/03 01:01:23;;;;;;;4.60;3.00;;;6.40;99.90;;;;;;4976530;28;20226;-83
2023/01/03 01:03:54;;;;;;;5.15;2.60;;;6.40;99.90;;;;;;4975800;28;20216;-82
2023/01/03 01:06:22;;;;;;;9.65;2.88;;;6.40;99.90;;;;;;4976197;28;20239;-83
2023/01/03 01:08:49;;;;;;;5.47;2.42;;;6.30;99.90;;;;;;4976279;28;20633;-83
2023/01/03 01:11:16;;;;;;;8.73;2.88;;;6.20;99.90;;;;;;4976559;28;20203;-83
2023/01/03 01:13:42;;;;;;;3.58;2.55;;;6.20;99.90;;;;;;4959605;28;20267;-83
2023/01/03 01:16:14;;;;;;;5.57;2.88;;;6.20;99.90;;;;;;4975913;28;20176;-83
2023/01/03 01:18:42;;;;;;;4.53;2.60;;;6.20;99.90;;;;;;4959036;28;20208;-83
2023/01/03 01:21:10;;;;;;;5.68;2.88;;;6.10;99.90;;;;;;4958987;28;20180;-83
2023/01/03 01:23:38;;;;;;;6.28;2.60;;;6.10;99.90;;;;;;4958483;28;20176;-82
2023/01/03 01:26:05;;;;;;;5.78;3.13;;;6.00;99.90;;;;;;4976119;28;20188;-83
2023/01/03 01:28:31;;;;;;;4.22;2.50;;;6.00;99.90;;;;;;4943372;28;20184;-82
2023/01/03 01:30:58;;;;;;;7.22;2.30;;;6.00;99.90;;;;;;4958887;28;20196;-83
2023/01/03 01:33:24;;;;;;;6.32;2.42;;;6.00;99.90;;;;;;4975794;28;20174;-83
2023/01/03 01:35:50;;;;;;;5.38;2.58;;;6.00;99.90;;;;;;4959069;28;20653;-83
2023/01/03 01:38:16;;;;;;;8.73;3.47;;;6.00;99.90;;;;;;4975829;28;20227;-83
2023/01/03 01:40:41;;;;;;;7.30;3.07;;;6.00;99.90;;;;;;4942763;28;20656;-83
2023/01/03 01:46:19;;;;;;;4.22;2.30;;;5.90;99.90;;;;;;4976254;28;20184;-83
2023/01/03 01:48:48;;;;;;;7.38;2.60;;;5.90;99.90;;;;;;4958324;28;20683;-83
2023/01/03 01:51:14;;;;;;;6.13;3.03;;;5.90;99.90;;;;;;4975376;28;20535;-83
2023/01/03 01:53:41;;;;;;;3.72;2.20;;;5.90;99.90;;;;;;4958741;28;20191;-82
2023/01/03 01:56:13;;;;;;;5.43;2.42;;;5.80;99.90;;;;;;4975398;28;20193;-82
2023/01/03 01:58:42;;;;;;;7.57;2.50;;;5.80;99.90;;;;;;4975972;28;20238;-82
2023/01/03 02:01:10;;;;;;;16.23;2.35;;;5.80;99.90;;;;;;4975396;28;20183;-82
2023/01/03 02:03:36;;;;;;;4.18;2.22;;;5.80;99.90;;;;;;4975879;28;20215;-82
2023/01/03 02:06:05;;;;;;;4.77;2.70;;;5.70;99.90;;;;;;4958380;28;20263;-82
2023/01/03 02:08:31;;;;;;;6.13;2.60;;;5.80;99.90;;;;;;4975453;28;20542;-82
2023/01/03 02:11:04;;;;;;;9.40;2.93;;;5.70;99.90;;;;;;4942623;28;20299;-82
2023/01/03 02:13:45;;;;;;;2.28;2.08;;;5.70;99.90;;;;;;4975988;28;20187;-82
2023/01/03 02:16:29;;;;;;;9.13;2.95;;;5.60;99.90;;;;;;4975414;28;20166;-82
2023/01/03 02:19:29;;;;;;;6.60;2.30;;;5.60;99.90;;;;;;4975478;28;20299;-82
2023/01/03 02:22:30;;;;;;;7.18;2.60;;;5.50;99.90;;;;;;4958400;28;20506;-82
2023/01/03 02:25:08;;;;;;;4.50;2.95;;;5.50;99.90;;;;;;4927438;28;20211;-82
2023/01/03 02:27:52;;;;;;;3.83;2.15;;;5.50;99.90;;;;;;4975940;28;20520;-82
2023/01/03 02:30:34;;;;;;;4.57;2.20;;;5.40;99.90;;;;;;4975484;28;20180;-81
2023/01/03 02:33:16;;;;;;;6.18;2.70;;;5.40;99.90;;;;;;4958365;28;20183;-81
2023/01/03 02:36:00;;;;;;;7.18;3.03;;;5.40;99.90;;;;;;4975968;28;20200;-81
2023/01/03 02:38:34;;;;;;;4.95;2.80;;;5.40;99.90;;;;;;4962287;28;20213;-82
2023/01/03 02:41:05;;;;;;;4.25;1.90;;;5.40;99.90;;;;;;4962079;28;20186;-83
2023/01/03 02:43:41;;;;;;;5.28;2.20;;;5.30;99.90;;;;;;4978846;28;20172;-83
2023/01/03 02:46:15;;;;;;;5.10;2.60;;;5.30;99.90;;;;;;4961239;28;20269;-82
2023/01/03 02:48:56;;;;;;;3.50;2.42;;;5.20;99.90;;;;;;4961706;28;20191;-82
2023/01/03 02:51:33;;;;;;;4.95;1.77;;;5.30;99.90;;;;;;4978685;28;20168;-82
2023/01/03 02:54:01;;;;;;;2.85;2.33;;;5.20;99.90;;;;;;4979320;28;20244;-83
2023/01/03 02:56:49;;;;;;;12.05;3.00;;;5.30;99.90;;;;;;4961129;28;20191;-83
2023/01/03 02:59:20;;;;;;;5.93;2.50;;;5.30;99.90;;;;;;4977957;28;20556;-82
2023/01/03 03:01:50;;;;;;;2.97;2.15;;;5.20;99.90;;;;;;4978911;28;20198;-82
2023/01/03 03:04:16;;;;;;;7.70;2.92;;;5.20;99.90;;;;;;4978676;28;20183;-82
2023/01/03 03:07:18;;;;;;;6.45;2.40;;;5.10;99.90;;;;;;4978880;28;20232;-83
2023/01/03 03:15:21;;;;;;;5.75;2.88;;;4.90;99.90;;;;;;4978587;28;20227;-82
2023/01/03 03:17:50;;;;;;;7.90;2.47;;;4.90;99.90;;;;;;4978419;28;20230;-82
2023/01/03 03:25:56;;;;;;;4.53;2.50;;;4.90;99.90;;;;;;4978069;28;20202;-83
2023/01/03 03:28:34;;;;;;;10.60;2.55;;;4.90;99.90;;;;;;4960719;28;20184;-83
2023/01/03 03:31:40;;;;;;;6.50;2.75;;;4.90;99.90;;;;;;4978087;28;20625;-83
2023/01/03 03:34:10;;;;;;;4.05;2.58;;;4.80;99.90;;;;;;4978271;28;20171;-83
2023/01/03 03:36:57;;;;;;;7.13;3.55;;;4.90;99.90;;;;;;4978003;28;20163;-82
2023/01/03 03:45:22;;;;;;;2.95;2.22;;;5.00;99.90;;;;;;4978394;28;20261;-83
2023/01/03 03:48:10;;;;;;;6.57;3.47;;;5.00;99.90;;;;;;4977959;28;20164;-83
2023/01/03 03:50:47;;;;;;;5.57;3.13;;;5.00;99.90;;;;;;4977599;28;20242;-82
2023/01/03 03:53:15;;;;;;;3.90;2.67;;;5.00;99.90;;;;;;4977812;28;20178;-83
2023/01/03 03:55:53;;;;;;;4.80;2.50;;;4.90;99.90;;;;;;4977710;28;20176;-83
2023/01/03 03:58:27;;;;;;;6.15;2.88;;;4.90;99.90;;;;;;4976928;28;20671;-82
2023/01/03 04:00:54;;;;;;;3.38;2.63;;;4.90;99.90;;;;;;4960301;28;20175;-82
2023/01/03 04:03:23;;;;;;;4.68;3.45;;;4.90;99.90;;;;;;4959954;28;20185;-82
2023/01/03 04:05:56;;;;;;;5.55;2.85;;;4.80;99.90;;;;;;4960491;28;20249;-83
2023/01/03 04:08:22;;;;;;;3.50;2.80;;;4.80;99.90;;;;;;4977177;28;20187;-83
2023/01/03 04:10:48;;;;;;;6.73;3.03;;;4.80;99.90;;;;;;4954904;28;20530;-82
2023/01/03 04:13:13;;;;;;;4.97;2.70;;;4.80;99.90;;;;;;4972025;28;20241;-82
2023/01/03 04:15:39;;;;;;;3.97;2.30;;;4.80;99.90;;;;;;4954559;28;20188;-82
2023/01/03 04:18:05;;;;;;;5.37;3.43;;;4.80;99.90;;;;;;4937958;28;20198;-83
2023/01/03 04:20:30;;;;;;;4.43;3.33;;;4.80;99.90;;;;;;4971876;28;20241;-82
2023/01/03 04:22:56;;;;;;;5.70;2.77;;;4.90;99.90;;;;;;4939602;28;20190;-82
2023/01/03 04:25:21;;;;;;;9.33;3.37;;;4.90;99.90;;;;;;4959393;28;20188;-81
2023/01/03 04:27:47;;;;;;;3.70;2.60;;;5.00;99.90;;;;;;4959956;28;20190;-83
2023/01/03 04:30:13;;;;;;;5.43;3.30;;;5.00;99.90;;;;;;4959853;28;20284;-83
2023/01/03 04:32:38;;;;;;;3.70;2.60;;;5.10;99.90;;;;;;4944319;28;20195;-82
2023/01/03 04:35:05;;;;;;;4.47;3.00;;;5.10;99.90;;;;;;4959865;28;20187;-82
2023/01/03 04:37:31;;;;;;;14.27;3.88;;;5.10;99.90;;;;;;4976465;28;20183;-82
2023/01/03 04:39:57;;;;;;;5.05;3.10;;;5.20;99.90;;;;;;4976995;28;20247;-83
2023/01/03 04:45:07;;;;;;;5.32;2.75;;;5.30;99.90;;;;;;4976962;28;20168;-82
2023/01/03 04:47:33;;;;;;;4.57;2.88;;;5.30;99.90;;;;;;4976664;28;20180;-83
2023/01/03 04:49:58;;;;;;;6.10;3.40;;;5.30;99.90;;;;;;4972642;28;20187;-82
2023/01/03 04:52:24;;;;;;;4.83;3.03;;;5.40;99.90;;;;;;4953178;28;20191;-82
2023/01/03 04:54:49;;;;;;;4.40;3.87;;;5.40;99.90;;;;;;4970392;28;20243;-82
2023/01/03 04:57:15;;;;;;;5.63;2.70;;;5.50;99.90;;;;;;4937289;28;20192;-82
2023/01/03 04:59:41;;;;;;;5.23;2.60;;;5.50;99.90;;;;;;4954512;28;20684;-82
2023/01/03 05:02:06;;;;;;;5.87;3.17;;;5.60;99.90;;;;;;4976668;28;20176;-82
2023/01/03 05:04:32;;;;;;;5.27;3.03;;;5.60;99.90;;;;;;4976456;28;20235;-83
2023/01/03 05:06:57;;;;;;;3.53;3.00;;;5.60;99.90;;;;;;4959066;28;20227;-83
2023/01/03 05:09:25;;;;;;;5.50;3.27;;;5.70;99.90;;;;;;4976156;28;20180;-83
2023/01/03 05:11:51;;;;;;;9.10;3.45;;;5.70;99.90;;;;;;4959557;28;20596;-83
2023/01/03 05:14:16;;;;;;;6.63;2.73;;;5.70;99.90;;;;;;4959075;28;20176;-83
2023/01/03 05:16:42;;;;;;;16.57;3.30;;;5.80;99.90;;;;;;4958879;28;20614;-83
2023/01/03 05:19:07;;;;;;;3.90;2.77;;;5.80;99.90;;;;;;4959406;28;20226;-83
2023/01/03 05:25:48;;;;;;;6.55;2.60;;;5.80;99.90;;;;;;4961321;28;20176;-82
2023/01/03 05:27:21;;;;;;;5.20;2.30;;;5.80;99.90;;;;;;4963364;28;20188;-83
2023/01/03 05:29:49;;;;;;;7.32;3.50;;;5.80;99.90;;;;;;4959172;28;20180;-83
2023/01/03 05:32:15;;;;;;;3.35;2.47;;;5.80;99.90;;;;;;4958691;28;20182;-83
2023/01/03 05:34:41;;;;;;;5.70;2.53;;;5.70;99.90;;;;;;4958468;28;20190;-83
2023/01/03 05:37:06;;;;;;;14.70;4.30;;;5.70;99.90;;;;;;4976136;28;20180;-82
2023/01/03 05:39:32;;;;;;;8.83;2.50;;;5.60;99.90;;;;;;4958197;28;20248;-82
2023/01/03 05:42:00;;;;;;;4.73;2.60;;;5.50;99.90;;;;;;4937985;28;20203;-83
2023/01/03 05:44:31;;;;;;;6.20;2.17;;;5.50;99.90;;;;;;4971526;28;20180;-83
2023/01/03 05:46:58;;;;;;;8.00;2.97;;;5.50;99.90;;;;;;4951682;28;20187;-83
2023/01/03 05:49:24;;;;;;;2.60;2.40;;;5.40;99.90;;;;;;4952445;28;20195;-82
2023/01/03 05:51:49;;;;;;;6.60;2.87;;;5.40;99.90;;;;;;4952248;28;20719;-83
2023/01/03 05:54:17;;;;;;;3.90;2.73;;;5.30;99.90;;;;;;4953593;28;20806;-83
2023/01/03 05:56:43;;;;;;;4.82;2.28;;;5.30;99.90;;;;;;4974388;28;20191;-83
2023/01/03 05:59:08;;;;;;;4.67;2.30;;;5.30;99.90;;;;;;4975648;28;20220;-83
2023/01/03 06:01:34;;;;;;;4.17;3.40;;;5.20;99.90;;;;;;4957755;28;20184;-82
2023/01/03 06:04:00;;;;;;;3.88;2.42;;;5.20;99.90;;;;;;4958293;28;20190;-83
2023/01/03 06:06:26;;;;;;;7.93;3.00;;;5.10;99.90;;;;;;4957874;28;20291;-83
2023/01/03 06:08:53;;;;;;;6.20;3.10;;;5.10;99.90;;;;;;4958071;28;20221;-83
2023/01/03 06:11:19;;;;;;;6.82;2.88;;;5.00;99.90;;;;;;4978365;28;20176;-83
2023/01/03 06:13:44;;;;;;;8.97;3.30;;;4.90;99.90;;;;;;4979690;28;20187;-83
2023/01/03 06:19:01;;;;;;;6.00;2.90;;;4.90;99.90;;;;;;4979227;28;20215;-82
2023/01/03 06:21:26;;;;;;;6.20;2.20;;;4.80;99.90;;;;;;4962086;28;20267;-83
2023/01/03 06:23:52;;;;;;;3.80;2.70;;;4.80;99.90;;;;;;4945946;28;20554;-83
2023/01/03 06:26:21;;;;;;;5.17;2.77;;;4.80;99.90;;;;;;4961951;28;20187;-83
2023/01/03 06:28:46;;;;;;;8.63;3.30;;;4.80;99.90;;;;;;4979317;28;20183;-83
2023/01/03 06:31:12;;;;;;;7.27;2.70;;;4.80;99.90;;;;;;4961934;28;20180;-83
2023/01/03 06:33:39;;;;;;;6.38;2.78;;;4.80;99.90;;;;;;4961791;28;20431;-83
2023/01/03 06:36:08;;;;;;;4.68;2.90;;;4.80;99.90;;;;;;4961725;28;20180;-83
2023/01/03 06:38:34;;;;;;;3.22;2.75;;;4.80;99.90;;;;;;4978801;28;20215;-82
2023/01/03 06:41:00;;;;;;;5.43;2.67;;;4.70;99.90;;;;;;4978964;28;20190;-82
2023/01/03 06:43:26;;;;;;;5.83;2.63;;;4.70;99.90;;;;;;4961864;28;20188;-82
2023/01/03 06:54:08;;;;;;;6.20;3.25;;;4.70;99.90;;;;;;4978783;28;20172;-83
2023/01/03 06:56:33;;;;;;;4.35;2.65;;;4.80;99.90;;;;;;4961030;28;20195;-83
2023/01/03 06:58:59;;;;;;;4.73;2.57;;;4.80;99.90;;;;;;4961760;28;20267;-83
2023/01/03 07:01:25;;;;;;;4.00;3.10;;;4.90;99.90;;;;;;4945405;28;20187;-82
2023/01/03 07:03:50;;;;;;;5.70;3.10;;;4.90;99.90;;;;;;4961094;28;20184;-82
2023/01/03 07:06:16;;;;;;;3.30;2.80;;;4.90;99.90;;;;;;4978522;28;20314;-83
2023/01/03 07:08:41;;;;;;;2.90;2.43;;;4.90;99.90;;;;;;4961160;28;20517;-83
2023/01/03 07:11:07;;;;;;;3.67;3.10;;;4.90;99.90;;;;;;4978342;28;20178;-83
2023/01/03 07:16:17;;;;;;;3.67;2.50;;;4.90;99.90;;;;;;4964012;28;20177;-83
2023/01/03 07:18:44;;;;;;;3.85;3.28;;;4.90;99.90;;;;;;4978032;28;20211;-82
2023/01/03 07:21:10;;;;;;;3.65;3.00;;;4.90;99.90;;;;;;4961054;28;20195;-82
2023/01/03 07:23:37;;;;;;;4.07;2.75;;;4.90;99.90;;;;;;4977652;28;20173;-83
2023/01/03 07:26:02;;;;;;;3.85;3.40;;;5.00;99.90;;;;;;4960784;28;20283;-82
2023/01/03 07:28:28;;;;;;;4.93;2.90;;;5.10;99.90;;;;;;4978080;28;20275;-83
2023/01/03 07:30:59;;;;;;;6.63;3.10;;;5.10;99.90;;;;;;4978353;28;20423;-83
2023/01/03 07:33:25;;;;;;;3.38;3.03;;;5.20;99.90;;;;;;4978139;28;20172;-83
2023/01/03 07:35:50;;;;;;;3.90;3.20;;;5.30;99.90;;;;;;4978040;28;20192;-83
2023/01/03 07:38:16;;;;;;;3.60;3.23;;;5.40;99.90;;;;;;4977747;28;20506;-83
2023/01/03 07:40:42;;;;;;;4.07;3.47;;;5.40;99.90;;;;;;4960187;28;20192;-83
2023/01/03 07:45:56;;;;;;;3.10;2.80;;;5.40;99.90;;;;;;4978163;28;20636;-82
2023/01/03 07:48:22;;;;;;;5.53;3.60;;;5.30;99.90;;;;;;4977917;28;20215;-81
2023/01/03 07:50:47;;;;;;;5.37;3.23;;;5.30;99.90;;;;;;4959915;28;20648;-82
2023/01/03 07:53:15;;;;;;;3.13;2.67;;;5.30;99.90;;;;;;4960954;28;20580;-82
2023/01/03 07:55:43;;;;;;;6.93;3.17;;;5.30;99.90;;;;;;4977668;28;20227;-82
2023/01/03 07:58:09;;;;;;;4.20;3.70;;;5.30;99.90;;;;;;4977633;28;20271;-82
2023/01/03 08:00:35;;;;;;;7.82;3.65;;;5.20;99.90;;;;;;4977556;28;20179;-82
2023/01/03 08:03:00;;;;;;;4.30;2.97;;;5.20;99.90;;;;;;4960553;28;20189;-82
2023/01/03 08:05:26;;;;;;;13.40;5.63;;;5.20;99.90;;;;;;4957084;29;20237;-82
2023/01/03 08:07:52;;;;;;;3.87;3.00;;;5.30;99.90;;;;;;4957365;29;20193;-82
2023/01/03 08:13:18;;;;;;;6.30;3.60;;;5.40;99.90;;;;;;4958445;29;20173;-82
2023/01/03 08:15:45;;;;;;;4.43;3.47;;;5.50;99.90;;;;;;4957021;29;20177;-82
2023/01/03 08:18:11;;;;;;;4.38;2.80;;;5.50;99.90;;;;;;4957937;29;20181;-82
2023/01/03 08:20:37;;;;;;;4.80;3.40;;;5.50;99.90;;;;;;4957708;29;20567;-82
2023/01/03 08:23:03;;;;;;;5.43;3.50;;;5.50;99.90;;;;;;4957435;29;20193;-82
2023/01/03 08:25:29;;;;;;;5.47;3.50;;;5.50;99.90;;;;;;4956734;28;20664;-82
2023/01/03 08:27:59;;;;;;;4.00;3.07;;;5.50;99.90;;;;;;4957972;29;20554;-82
2023/01/03 08:30:24;;;;;;;7.93;3.40;;;5.50;99.90;;;;;;4956786;29;20431;-82
2023/01/03 08:32:52;;;;;;;8.23;4.27;;;5.50;99.90;;;;;;4956715;28;20188;-82
2023/01/03 08:35:18;;;;;;;5.00;2.95;;;5.50;99.90;;;;;;4957258;29;20239;-82
2023/01/03 08:37:46;;;;;;;4.72;3.33;;;5.50;99.90;;;;;;4957980;29;20178;-81
2023/01/03 08:40:14;;;;;;;3.60;3.30;;;5.50;99.90;;;;;;4956633;28;20242;-82
2023/01/03 08:42:41;;;;;;;4.00;3.20;;;5.50;99.90;;;;;;4958174;29;20180;-82
2023/01/03 08:45:12;;;;;;;6.00;4.03;;;5.50;99.90;;;;;;4940778;29;20701;-81
2023/01/03 08:47:39;;;;;;;4.05;3.65;;;5.60;99.90;;;;;;4957987;29;20259;-82
2023/01/03 08:50:05;;;;;;;8.98;3.70;;;5.60;99.90;;;;;;4957791;29;20552;-82
2023/01/03 08:52:30;;;;;;;5.45;2.90;;;5.70;99.90;;;;;;4957461;28;20191;-82
2023/01/03 08:54:56;;;;;;;7.93;3.13;;;5.70;99.90;;;;;;4940598;29;20692;-82
2023/01/03 08:57:22;;;;;;;4.50;3.33;;;5.80;99.90;;;;;;4956258;29;20196;-82
2023/01/03 08:59:47;;;;;;;7.23;4.20;;;5.90;99.90;;;;;;4956883;29;20215;-82
2023/01/03 09:02:13;;;;;;;5.93;3.33;;;6.00;99.90;;;;;;4956614;29;20567;-81
2023/01/03 09:04:38;;;;;;;4.97;2.87;;;6.00;99.90;;;;;;4956313;29;20184;-80
2023/01/03 09:07:04;;;;;;;3.20;2.90;;;6.10;99.90;;;;;;4939965;29;20246;-82
2023/01/03 09:09:30;;;;;;;5.27;3.33;;;6.20;99.90;;;;;;4957221;29;20238;-83
2023/01/03 09:11:56;;;;;;;9.15;3.10;;;6.30;99.90;;;;;;4957166;29;20272;-83
2023/01/03 09:14:21;;;;;;;5.97;3.17;;;6.40;99.90;;;;;;4956986;29;20276;-83
2023/01/03 09:16:47;;;;;;;5.17;3.63;;;6.40;99.90;;;;;;4924300;29;20183;-83
2023/01/03 09:19:13;;;;;;;6.33;3.33;;;6.50;99.90;;;;;;4955905;29;20579;-82
2023/01/03 09:21:38;;;;;;;5.00;2.60;;;6.60;99.90;;;;;;4956825;29;20803;-83
2023/01/03 09:24:04;;;;;;;5.13;2.57;;;6.70;99.90;;;;;;4955933;29;20184;-83
2023/01/03 09:26:30;;;;;;;4.23;2.57;;;6.70;99.90;;;;;;4957182;29;20634;-83
2023/01/03 09:28:55;;;;;;;4.00;2.87;;;6.90;99.90;;;;;;4956630;28;20502;-83
2023/01/03 09:31:21;;;;;;;2.60;2.30;;;6.90;99.90;;;;;;4955841;29;20313;-83
2023/01/03 09:33:47;;;;;;;3.77;2.83;;;7.00;99.90;;;;;;4955610;29;20542;-82
2023/01/03 09:36:12;;;;;;;3.13;2.80;;;7.10;99.90;;;;;;4956904;29;20175;-83
2023/01/03 09:38:38;;;;;;;5.40;3.20;;;7.20;99.90;;;;;;4956335;29;20212;-83
2023/01/03 09:41:11;;;;;;;5.87;3.00;;;7.40;99.90;;;;;;4939628;29;20185;-83
2023/01/03 09:43:39;;;;;;;3.85;2.67;;;7.50;99.90;;;;;;4955172;29;20324;-83
2023/01/03 09:46:11;;;;;;;3.78;2.20;;;7.50;99.90;;;;;;4956182;28;20185;-83
2023/01/03 09:48:39;;;;;;;2.03;1.77;;;7.60;99.90;;;;;;4956167;29;20173;-83
2023/01/03 10:03:42;;;;;;;5.35;2.40;;;7.60;99.90;;;;;;4955407;29;20177;-83
2023/01/03 10:05:44;;;;;;;4.25;2.40;;;8.10;99.90;;;;;;4961039;28;20235;-80
2023/01/03 10:08:25;;;;;;;2.38;1.10;;;8.40;99.90;;;;;;4960044;28;20532;-80
2023/01/03 10:11:00;;;;;;;2.22;1.67;;;8.70;99.90;;;;;;4959535;28;20183;-80
2023/01/03 10:13:35;;;;;;;2.60;1.90;;;9.10;99.90;;;;;;4959117;28;20184;-83
2023/01/03 10:16:11;;;;;;;3.97;1.40;;;9.40;99.90;;;;;;4975903;28;20226;-83
2023/01/03 10:19:05;;;;;;;2.10;1.40;;;9.60;99.90;;;;;;4975415;28;20283;-82
2023/01/03 10:22:10;;;;;;;3.08;1.55;;;9.70;99.90;;;;;;4958299;28;20637;-83
2023/01/03 10:24:55;;;;;;;3.03;1.20;;;10.00;99.90;;;;;;4964308;28;20207;-83
2023/01/03 10:27:25;;;;;;;1.30;0.90;;;10.20;99.90;;;;;;4958877;28;20431;-82
2023/01/03 10:29:54;;;;;;;2.53;1.10;;;10.30;99.90;;;;;;4957999;28;20451;-83
2023/01/03 10:32:58;;;;;;;3.80;1.37;;;10.50;99.90;;;;;;4958086;28;20426;-83
2023/01/03 10:35:31;;;;;;;2.23;1.10;;;10.70;99.90;;;;;;4915408;28;20761;-83
2023/01/03 10:37:57;;;;;;;2.22;1.40;;;10.70;99.90;;;;;;4957792;28;20787;-84
2023/01/03 10:40:44;;;;;;;3.63;1.23;;;10.80;99.90;;;;;;4941933;28;20228;-83
2023/01/03 10:43:24;;;;;;;7.33;1.20;;;10.90;99.90;;;;;;4975293;28;20442;-84
2023/01/03 10:45:55;;;;;;;12.63;1.00;;;11.00;99.90;;;;;;4957866;28;20411;-83
2023/01/03 10:48:22;;;;;;;4.37;1.27;;;11.10;99.90;;;;;;4975368;28;20407;-84
2023/01/03 10:50:49;;;;;;;3.53;1.00;;;11.10;99.90;;;;;;4957959;28;20420;-84
2023/01/03 10:53:18;;;;;;;2.13;0.90;;;11.00;99.90;;;;;;4958573;28;20427;-80
2023/01/03 10:55:48;;;;;;;1.40;0.97;;;10.90;99.90;;;;;;4974961;28;21030;-80
2023/01/03 10:58:21;;;;;;;4.50;1.43;;;11.30;99.90;;;;;;4977581;28;20511;-80
2023/01/03 11:00:48;;;;;;;3.87;1.00;;;11.60;99.90;;;;;;4978427;28;20403;-80
2023/01/03 11:03:34;;;;;;;2.53;1.10;;;11.80;99.90;;;;;;4978290;28;20422;-81
2023/01/03 11:05:59;;;;;;;4.80;1.20;;;11.80;99.90;;;;;;4978383;28;20466;-81
2023/01/03 11:08:44;;;;;;;2.87;0.83;;;12.20;99.90;;;;;;4961677;28;20423;-82
2023/01/03 11:11:29;;;;;;;3.93;1.40;;;12.40;99.90;;;;;;4978526;28;20684;-80
2023/01/03 11:14:18;;;;;;;2.97;0.80;;;12.60;99.90;;;;;;4961268;28;20428;-81
2023/01/03 11:16:44;;;;;;;2.60;1.00;;;12.70;99.90;;;;;;4977726;28;20424;-80
2023/01/03 11:19:16;;;;;;;4.13;1.17;;;12.60;99.90;;;;;;4945728;28;20494;-80
2023/01/03 11:21:51;;;;;;;5.50;2.13;;;12.00;99.90;;;;;;4977960;28;20251;-80
2023/01/03 11:24:55;;;;;;;3.17;1.00;;;11.70;99.90;;;;;;4978217;28;20400;-81
2023/01/03 11:27:39;;;;;;;1.40;0.80;;;11.60;99.90;;;;;;4977532;28;20836;-81
2023/01/03 11:30:29;;;;;;;2.93;0.97;;;11.40;99.90;;;;;;4960989;28;20463;-81
2023/01/03 11:33:20;;;;;;;2.10;1.07;;;11.30;99.90;;;;;;4961494;28;20795;-81
2023/01/03 11:36:01;;;;;;;1.58;1.20;;;11.20;99.90;;;;;;4978120;28;20418;-80
2023/01/03 11:38:54;;;;;;;2.07;1.10;;;11.10;99.90;;;;;;4978345;28;20164;-80
2023/01/03 11:41:47;;;;;;;1.17;0.80;;;11.10;99.90;;;;;;4978377;28;20499;-80
2023/01/03 11:44:31;;;;;;;1.52;1.20;;;11.10;99.90;;;;;;4978327;28;20563;-81
2023/01/03 11:47:24;;;;;;;1.60;1.00;;;11.10;99.90;;;;;;4978145;28;20184;-80
2023/01/03 11:50:15;;;;;;;2.30;1.08;;;11.10;99.90;;;;;;4977817;28;20172;-81
2023/01/03 11:53:14;;;;;;;2.95;1.15;;;11.10;99.90;;;;;;4961016;28;20274;-81
2023/01/03 11:55:59;;;;;;;2.10;0.80;;;11.10;99.90;;;;;;4977822;28;20318;-83
2023/01/03 11:58:36;;;;;;;3.50;0.80;;;11.30;99.90;;;;;;4960942;28;20621;-81
2023/01/03 12:01:13;;;;;;;1.30;0.80;;;11.20;99.90;;;;;;4977948;28;20624;-81
2023/01/03 12:04:11;;;;;;;3.45;1.50;;;11.30;99.90;;;;;;4960896;28;20188;-83
2023/01/03 12:06:59;;;;;;;4.00;0.77;;;11.30;99.90;;;;;;4945469;28;20691;-80
2023/01/03 12:09:40;;;;;;;1.70;1.00;;;11.30;99.90;;;;;;4978017;28;20176;-81
2023/01/03 12:12:41;;;;;;;9.20;1.57;;;11.40;99.90;;;;;;4960585;28;20190;-80
2023/01/03 12:15:10;;;;;;;2.80;1.05;;;11.40;99.90;;;;;;4959820;28;20510;-81
2023/01/03 12:17:47;;;;;;;2.00;0.90;;;11.50;99.90;;;;;;4978072;28;20592;-81
2023/01/03 12:20:22;;;;;;;4.97;1.13;;;11.40;99.90;;;;;;4977763;28;20220;-80
2023/01/03 12:23:00;;;;;;;3.30;1.27;;;11.40;99.90;;;;;;4977617;28;20416;-81
2023/01/03 12:25:40;;;;;;;1.60;0.80;;;12.30;99.90;;;;;;4976936;28;20263;-81
2023/01/03 12:28:17;;;;;;;2.40;0.90;;;12.60;99.90;;;;;;4959540;28;20419;-81
2023/01/03 12:31:02;;;;;;;4.77;1.43;;;12.90;99.90;;;;;;4977195;28;20407;-83
2023/01/03 12:33:53;;;;;;;6.27;1.57;;;12.80;99.90;;;;;;4976905;28;20411;-81
2023/01/03 12:36:22;;;;;;;3.00;0.90;;;12.90;99.90;;;;;;4976605;28;20408;-81
2023/01/03 12:39:10;;;;;;;3.30;1.47;;;12.80;99.90;;;;;;4977216;28;20537;-81
2023/01/03 12:42:03;;;;;;;2.63;0.97;;;12.50;99.90;;;;;;4977223;28;20542;-81
2023/01/03 12:44:36;;;;;;;5.50;1.07;;;12.50;99.90;;;;;;4977010;28;20807;-81
2023/01/03 12:47:04;;;;;;;3.60;1.30;;;12.40;99.90;;;;;;4976668;28;20403;-81
2023/01/03 12:49:41;;;;;;;3.63;1.10;;;12.10;99.90;;;;;;4975562;28;20443;-81
2023/01/03 12:52:14;;;;;;;2.93;1.03;;;12.00;99.90;;;;;;4959555;28;20431;-81
2023/01/03 12:55:07;;;;;;;4.27;1.50;;;11.80;99.90;;;;;;4976673;28;20419;-82
2023/01/03 12:57:54;;;;;;;4.63;1.67;;;11.70;99.90;;;;;;4959518;28;20430;-81
2023/01/03 13:00:51;;;;;;;2.70;0.90;;;11.80;99.90;;;;;;4976790;28;20800;-81
2023/01/03 13:03:23;;;;;;;5.13;1.33;;;12.00;99.90;;;;;;4977078;28;20407;-82
2023/01/03 13:05:54;;;;;;;3.60;1.00;;;12.10;99.90;;;;;;4959034;28;20971;-82
2023/01/03 13:08:26;;;;;;;4.73;1.60;;;12.10;99.90;;;;;;4959665;28;20416;-81
2023/01/03 13:10:56;;;;;;;1.42;1.00;;;12.20;99.90;;;;;;4975367;28;20422;-82
2023/01/03 13:13:22;;;;;;;2.58;1.23;;;12.20;99.90;;;;;;4976659;28;20251;-82
2023/01/03 13:15:48;;;;;;;2.53;0.90;;;12.20;99.90;;;;;;4959089;28;20212;-82
2023/01/03 13:18:22;;;;;;;2.57;0.90;;;12.00;99.90;;;;;;4959140;28;20539;-82
2023/01/03 13:20:49;;;;;;;1.50;0.90;;;11.90;99.90;;;;;;4975048;28;20191;-82
2023/01/03 13:23:35;;;;;;;8.65;1.02;;;11.70;99.90;;;;;;4972917;28;20538;-82
2023/01/03 13:26:06;;;;;;;2.50;0.90;;;11.60;99.90;;;;;;4971432;28;20212;-83
2023/01/03 13:28:33;;;;;;;2.10;0.93;;;11.50;99.90;;;;;;4970791;28;20681;-83
2023/01/03 13:31:17;;;;;;;2.40;1.00;;;11.40;99.90;;;;;;4956188;28;20440;-85
2023/01/03 13:34:08;;;;;;;4.03;1.20;;;11.40;99.90;;;;;;4971404;28;20223;-82
2023/01/03 13:37:05;;;;;;;2.58;0.80;;;11.40;99.90;;;;;;4976041;28;20404;-81
2023/01/03 13:39:38;;;;;;;2.85;0.80;;;11.30;99.90;;;;;;4974942;28;20216;-82
2023/01/03 13:42:05;;;;;;;2.55;0.93;;;11.20;99.90;;;;;;4972246;28;20180;-83
2023/01/03 13:44:30;;;;;;;4.10;1.20;;;11.10;99.90;;;;;;4954223;28;20195;-82
2023/01/03 13:46:57;;;;;;;1.93;0.80;;;11.00;99.90;;;;;;4970848;28;20516;-84
2023/01/03 13:49:26;;;;;;;7.18;1.20;;;11.00;99.90;;;;;;4923008;28;20565;-82
2023/01/03 13:51:54;;;;;;;2.60;1.45;;;10.90;99.90;;;;;;4954592;28;20188;-81
2023/01/03 13:54:19;;;;;;;2.90;1.02;;;11.00;99.90;;;;;;4974527;28;20176;-81
2023/01/03 13:56:48;;;;;;;6.47;1.10;;;11.00;99.90;;;;;;4958569;28;20188;-81
2023/01/03 13:59:13;;;;;;;2.08;0.88;;;11.10;99.90;;;;;;4958379;28;20234;-81
2023/01/03 14:01:45;;;;;;;2.80;0.90;;;11.20;99.90;;;;;;4975727;28;20251;-81
2023/01/03 14:04:13;;;;;;;2.35;0.82;;;11.30;99.90;;;;;;4961451;28;20188;-82
2023/01/03 14:06:39;;;;;;;3.75;0.88;;;11.30;99.90;;;;;;4975672;28;20575;-82
2023/01/03 14:09:14;;;;;;;4.73;1.00;;;11.30;99.90;;;;;;4975192;28;20238;-82
2023/01/03 14:12:05;;;;;;;1.10;0.70;;;11.50;99.90;;;;;;4958104;28;20330;-80
2023/01/03 14:14:36;;;;;;;3.53;1.20;;;11.50;99.90;;;;;;4958891;28;20621;-81
2023/01/03 14:17:03;;;;;;;1.35;0.70;;;11.40;99.90;;;;;;4975470;28;20168;-82